Terminal Aerodrome Forecast
Issued by NWS Blacksburg, VA

Current Version | Previous Version | Text Only | Print | Product List | Glossary Off
Versions: 1 2 3 4 5 6 7 8 9 10 11 12 13 14 15 16 17 18 19 20 21 22 23

000
FTUS41 KRNK 181123
TAFBLF
TAF
KBLF 181123Z 1812/1912 26008KT P6SM BKN200
     FM181800 26008KT P6SM OVC100
     FM182300 26005KT P6SM VCSH OVC090
     FM190300 26007KT P6SM OVC025
     FM190700 29009KT 3SM -SHRA BR OVC010=

USA.gov is the U.S. government's official web portal to all federal, state and local government web resources and services.